Time;durP1;ratioP1;P1;durP2;ratioP2;P2;SDS_P1;SDS_P2;PMS_P1;PMS_P2;Temp;Humidity;BMP_temperature;BMP_pressure;BME280_temperature;BME280_humidity;BME280_pressure;Samples;Min_cycle;Max_cycle;Signal;HPM_P1;HPM_P2
2022/08/11 00:00:57;;;;;;;0.70;0.50;;;;;;;-145.06;100.00;60892.56;5972025;23;20420;-86
2022/08/11 00:03:46;;;;;;;0.50;0.40;;;;;;;-145.06;100.00;60892.56;5971315;23;20008;-87
2022/08/11 00:06:34;;;;;;;0.90;0.50;;;;;;;-145.06;100.00;60892.56;5982109;23;20009;-86
2022/08/11 00:09:32;;;;;;;0.93;0.40;;;;;;;-145.06;100.00;60892.56;5983358;23;20013;-87
2022/08/11 00:12:14;;;;;;;0.60;0.40;;;;;;;-145.06;100.00;60892.56;5971919;23;20025;-88
2022/08/11 00:14:56;;;;;;;0.68;0.50;;;;;;;-145.06;100.00;60892.56;5972407;23;20005;-87
2022/08/11 00:17:36;;;;;;;0.57;0.50;;;;;;;-145.06;100.00;60892.56;5983041;23;20178;-88
2022/08/11 00:20:16;;;;;;;0.70;0.47;;;;;;;-145.06;100.00;60892.56;5971440;23;20001;-88
2022/08/11 00:23:06;;;;;;;1.00;0.40;;;;;;;-145.06;100.00;60892.56;5982597;23;20009;-86
2022/08/11 00:25:46;;;;;;;;;;;;;;;-145.06;100.00;60892.56;5972256;23;20005;-87
2022/08/11 00:28:33;;;;;;;1.17;0.38;;;;;;;-145.06;100.00;60892.56;5982409;23;19904;-88
2022/08/11 00:31:28;;;;;;;0.40;0.40;;;;;;;-145.06;100.00;60892.56;5983389;23;20364;-88
2022/08/11 00:34:10;;;;;;;0.47;0.40;;;;;;;-145.06;100.00;60892.56;5949440;23;20036;-86
2022/08/11 00:36:54;;;;;;;0.77;0.60;;;;;;;-145.06;100.00;60892.56;5972916;23;20041;-87
2022/08/11 00:39:41;;;;;;;0.77;0.57;;;;;;;-145.06;100.00;60892.56;5949532;23;20060;-86
2022/08/11 00:42:32;;;;;;;0.47;0.38;;;;;;;-145.06;100.00;60892.56;5973196;23;20005;-87
2022/08/11 00:45:20;;;;;;;0.52;0.40;;;;;;;-145.06;100.00;60892.56;5971204;23;20005;-88
2022/08/11 00:48:27;;;;;;;0.73;0.52;;;;;;;-145.06;100.00;60892.56;5980653;23;20009;-87
2022/08/11 00:51:09;;;;;;;0.50;0.50;;;;;;;-145.06;100.00;60892.56;5970721;23;20005;-88
2022/08/11 00:54:19;;;;;;;0.60;0.40;;;;;;;-145.06;100.00;60892.56;5971814;23;20013;-87
2022/08/11 00:57:36;;;;;;;0.65;0.47;;;;;;;-145.06;100.00;60892.56;5971381;23;20021;-87
2022/08/11 01:00:23;;;;;;;0.88;0.55;;;;;;;-145.06;100.00;60892.56;5981581;23;20001;-87
2022/08/11 01:03:13;;;;;;;0.70;0.50;;;;;;;-145.06;100.00;60892.56;5970268;23;20411;-87
2022/08/11 01:05:55;;;;;;;0.77;0.60;;;;;;;-145.06;100.00;60892.56;5970477;23;20016;-86
2022/08/11 01:08:40;;;;;;;0.40;0.40;;;;;;;-145.06;100.00;60892.56;5980493;23;20005;-87
2022/08/11 01:11:48;;;;;;;0.75;0.60;;;;;;;-145.06;100.00;60892.56;5968906;23;20009;-86
2022/08/11 01:14:46;;;;;;;0.80;0.50;;;;;;;-145.06;100.00;60892.56;5970390;23;20005;-88
2022/08/11 01:17:49;;;;;;;0.50;0.50;;;;;;;-145.06;100.00;60892.56;5981149;23;20009;-86
2022/08/11 01:20:59;;;;;;;0.40;0.40;;;;;;;-145.06;100.00;60892.56;5979999;23;20095;-86
2022/08/11 01:24:05;;;;;;;0.68;0.43;;;;;;;-145.06;100.00;60892.56;5981680;23;20005;-87
2022/08/11 01:27:21;;;;;;;0.60;0.40;;;;;;;-145.06;100.00;60892.56;5971393;23;20605;-86
2022/08/11 01:30:27;;;;;;;0.50;0.50;;;;;;;-145.06;100.00;60892.56;5969074;23;20001;-88
2022/08/11 01:33:33;;;;;;;1.27;0.50;;;;;;;-145.06;100.00;60892.56;5948897;23;20001;-87
2022/08/11 01:36:49;;;;;;;0.77;0.40;;;;;;;-145.06;100.00;60892.56;5969667;23;20009;-86
2022/08/11 01:39:28;;;;;;;0.50;0.40;;;;;;;-145.06;100.00;60892.56;5968379;23;20001;-86
2022/08/11 01:45:47;;;;;;;0.52;0.43;;;;;;;-145.06;100.00;60892.56;5978424;23;20005;-88
2022/08/11 01:48:41;;;;;;;0.45;0.40;;;;;;;-145.06;100.00;60892.56;5979682;23;20005;-87
2022/08/11 01:51:30;;;;;;;0.73;0.60;;;;;;;-145.06;100.00;60892.56;5967619;23;20091;-86
2022/08/11 01:54:51;;;;;;;1.33;0.50;;;;;;;-145.06;100.00;60892.56;5980229;23;20308;-86
2022/08/11 01:58:07;;;;;;;0.30;0.30;;;;;;;-145.06;100.00;60892.56;5948252;23;20005;-88
2022/08/11 02:01:01;;;;;;;0.60;0.40;;;;;;;-145.06;100.00;60892.56;5947687;23;20032;-87
2022/08/11 02:03:52;;;;;;;2.58;0.50;;;;;;;-145.06;100.00;60892.56;5980709;23;20609;-86
2022/08/11 02:06:54;;;;;;;0.68;0.55;;;;;;;-145.06;100.00;60892.56;5968499;23;20009;-86
2022/08/11 02:09:54;;;;;;;1.65;0.50;;;;;;;-145.06;100.00;60892.56;5947448;23;20080;-87
2022/08/11 02:12:45;;;;;;;0.57;0.50;;;;;;;-145.06;100.00;60892.56;5969008;23;20037;-87
2022/08/11 02:15:33;;;;;;;0.57;0.47;;;;;;;-145.06;100.00;60892.56;5968860;23;20013;-87
2022/08/11 02:25:05;;;;;;;1.60;0.60;;;;;;;-145.06;100.00;60892.56;5979805;23;20275;-87
2022/08/11 02:27:52;;;;;;;0.57;0.45;;;;;;;-145.06;100.00;60892.56;5949149;23;20009;-87
2022/08/11 02:30:38;;;;;;;0.90;0.60;;;;;;;-145.06;100.00;60892.56;5970055;23;20005;-87
2022/08/11 02:33:29;;;;;;;0.85;0.55;;;;;;;-145.06;100.00;60892.56;5994028;23;20013;-88
2022/08/11 02:36:27;;;;;;;0.90;0.60;;;;;;;-145.06;100.00;60892.56;5990245;23;20009;-86
2022/08/11 02:39:13;;;;;;;0.73;0.43;;;;;;;-145.06;100.00;60892.56;5983057;23;20005;-87
2022/08/11 02:42:24;;;;;;;9.68;1.15;;;;;;;-145.06;100.00;60892.56;5968323;23;20013;-87
2022/08/11 02:45:09;;;;;;;0.50;0.50;;;;;;;-145.06;100.00;60892.56;5979308;23;20300;-87
2022/08/11 02:51:38;;;;;;;0.68;0.40;;;;;;;-145.06;100.00;60892.56;5979704;23;20045;-87
2022/08/11 02:54:28;;;;;;;0.93;0.60;;;;;;;-145.06;100.00;60892.56;5968796;23;20005;-87
2022/08/11 02:57:26;;;;;;;0.60;0.43;;;;;;;-145.06;100.00;60892.56;5968861;23;20036;-87
2022/08/11 03:00:15;;;;;;;2.45;0.57;;;;;;;-145.06;100.00;60892.56;5979658;23;20008;-86
2022/08/11 03:03:15;;;;;;;1.15;0.60;;;;;;;-145.06;100.00;60892.56;5947743;23;20005;-86
2022/08/11 03:06:31;;;;;;;0.88;0.60;;;;;;;-145.06;100.00;60892.56;5968126;23;20432;-87
2022/08/11 03:09:37;;;;;;;0.63;0.52;;;;;;;-145.06;100.00;60892.56;5968890;23;20009;-86
2022/08/11 03:18:56;;;;;;;0.98;0.52;;;;;;;-145.06;100.00;60892.56;5945973;23;20001;-86
2022/08/11 03:21:54;;;;;;;0.80;0.60;;;;;;;-145.06;100.00;60892.56;5974654;23;20009;-88
2022/08/11 03:24:45;;;;;;;0.90;0.70;;;;;;;-145.06;100.00;60892.56;5967323;23;20009;-87
2022/08/11 03:27:47;;;;;;;0.95;0.60;;;;;;;-145.06;100.00;60892.56;5946592;23;20008;-86
2022/08/11 03:30:39;;;;;;;1.05;0.70;;;;;;;-145.06;100.00;60892.56;5975032;23;20314;-87
2022/08/11 03:36:49;;;;;;;1.15;0.70;;;;;;;-145.06;100.00;60892.56;5979015;23;20594;-87
2022/08/11 03:39:54;;;;;;;0.52;0.43;;;;;;;-145.06;100.00;60892.56;5969427;23;20017;-87
2022/08/11 03:42:53;;;;;;;1.08;0.60;;;;;;;-145.06;100.00;60892.56;5966283;23;19997;-85
2022/08/11 03:46:00;;;;;;;1.13;0.63;;;;;;;-145.06;100.00;60892.56;5962742;23;20109;-85
2022/08/11 03:48:59;;;;;;;1.17;0.80;;;;;;;-145.06;100.00;60892.56;5975226;23;20001;-86
2022/08/11 03:51:55;;;;;;;0.98;0.68;;;;;;;-145.06;100.00;60892.56;5974712;23;20439;-86
2022/08/11 03:54:59;;;;;;;1.10;0.57;;;;;;;-145.06;100.00;60892.56;5965567;23;20032;-85
2022/08/11 03:57:44;;;;;;;0.80;0.60;;;;;;;-145.06;100.00;60892.56;5965066;23;20009;-85
2022/08/11 04:00:48;;;;;;;1.10;0.60;;;;;;;-145.06;100.00;60892.56;5975576;23;20005;-85
2022/08/11 04:03:49;;;;;;;0.90;0.60;;;;;;;-145.06;100.00;60892.56;5976299;23;20001;-85
2022/08/11 04:06:50;;;;;;;0.88;0.70;;;;;;;-145.06;100.00;60892.56;5962523;23;20001;-84
2022/08/11 04:09:54;;;;;;;1.20;0.70;;;;;;;-145.06;100.00;60892.56;5963255;23;20391;-86
2022/08/11 04:12:52;;;;;;;1.05;0.77;;;;;;;-145.06;100.00;60892.56;5976361;23;20008;-86
2022/08/11 04:16:25;;;;;;;0.73;0.52;;;;;;;-145.06;100.00;60892.56;5962842;23;20005;-86
2022/08/11 04:19:34;;;;;;;1.08;0.60;;;;;;;-145.06;100.00;60892.56;5943653;23;20495;-87
2022/08/11 04:22:16;;;;;;;0.73;0.68;;;;;;;-145.06;100.00;60892.56;5965793;23;20005;-85
2022/08/11 04:25:17;;;;;;;1.35;0.70;;;;;;;-145.06;100.00;60892.56;5963017;23;20316;-86
2022/08/11 04:28:16;;;;;;;1.13;0.75;;;;;;;-145.06;100.00;60892.56;5977395;23;20005;-86
2022/08/11 04:31:46;;;;;;;1.30;0.80;;;;;;;-145.06;100.00;60892.56;5935125;23;20001;-85
2022/08/11 04:34:47;;;;;;;0.60;0.52;;;;;;;-145.06;100.00;60892.56;5962022;23;20005;-87
2022/08/11 04:37:48;;;;;;;1.27;0.80;;;;;;;-145.06;100.00;60892.56;5977326;23;20455;-86
2022/08/11 04:40:49;;;;;;;0.88;0.70;;;;;;;-145.06;100.00;60892.56;5974286;23;20001;-85
2022/08/11 04:43:56;;;;;;;0.88;0.73;;;;;;;-145.06;100.00;60892.56;5966550;23;20008;-86
2022/08/11 04:46:57;;;;;;;1.33;0.75;;;;;;;-145.06;100.00;60892.56;5963931;23;20001;-85
2022/08/11 05:02:48;;;;;;;1.35;0.90;;;;;;;-145.06;100.00;60892.56;5975467;23;20440;-86
2022/08/11 05:06:05;;;;;;;1.05;0.70;;;;;;;-145.06;100.00;60892.56;5965900;23;20005;-86
2022/08/11 05:09:02;;;;;;;3.28;1.05;;;;;;;-145.06;100.00;60892.56;5967545;23;20138;-86
2022/08/11 05:12:01;;;;;;;2.60;1.00;;;;;;;-145.06;100.00;60892.56;5976944;23;20008;-85
2022/08/11 05:36:53;;;;;;;0.88;0.75;;;;;;;-145.06;100.00;60892.56;5973245;23;20363;-85
2022/08/11 05:58:06;;;;;;;1.30;0.85;;;;;;;-145.06;100.00;60892.56;5975778;23;20009;-85
2022/08/11 06:00:45;;;;;;;1.48;0.80;;;;;;;-145.06;100.00;60892.56;5966341;23;20009;-86
2022/08/11 06:03:27;;;;;;;0.80;0.70;;;;;;;-145.06;100.00;60892.56;5975133;23;20009;-86
2022/08/11 06:06:08;;;;;;;1.48;0.68;;;;;;;-145.06;100.00;60892.56;5965020;23;20008;-86
2022/08/11 06:08:48;;;;;;;1.10;0.70;;;;;;;-145.06;100.00;60892.56;5965292;23;20080;-86
2022/08/11 06:11:30;;;;;;;1.20;0.93;;;;;;;-145.06;100.00;60892.56;5964501;23;20116;-86
2022/08/11 06:14:10;;;;;;;0.90;0.70;;;;;;;-145.06;100.00;60892.56;5965590;23;20009;-86
2022/08/11 06:16:51;;;;;;;0.95;0.77;;;;;;;-145.06;100.00;60892.56;5975211;23;20440;-85
2022/08/11 06:19:34;;;;;;;0.70;0.65;;;;;;;-145.06;100.00;60892.56;5975557;23;20084;-86
2022/08/11 06:22:20;;;;;;;0.75;0.47;;;;;;;-145.06;100.00;60892.56;5946507;23;20012;-87
2022/08/11 06:25:01;;;;;;;0.95;0.70;;;;;;;-145.06;100.00;60892.56;5965197;23;20005;-86
2022/08/11 06:27:44;;;;;;;0.98;0.60;;;;;;;-145.06;100.00;60892.56;5976164;23;20009;-87
2022/08/11 06:30:53;;;;;;;0.73;0.60;;;;;;;-145.06;100.00;60892.56;5974577;23;20009;-86
2022/08/11 06:33:52;;;;;;;0.50;0.47;;;;;;;-145.06;100.00;60892.56;5965437;23;20001;-87
2022/08/11 06:36:34;;;;;;;2.80;0.60;;;;;;;-145.06;100.00;60892.56;5946611;23;20005;-86
2022/08/11 06:39:39;;;;;;;0.95;0.60;;;;;;;-145.06;100.00;60892.56;5976000;23;20001;-87
2022/08/11 06:42:47;;;;;;;0.77;0.60;;;;;;;-145.06;100.00;60892.56;5973782;23;20076;-86
2022/08/11 06:45:45;;;;;;;0.57;0.47;;;;;;;-145.06;100.00;60892.56;5940259;23;20037;-87
2022/08/11 06:48:24;;;;;;;0.82;0.52;;;;;;;-145.06;100.00;60892.56;5974804;23;20325;-86
2022/08/11 06:51:11;;;;;;;2.03;0.65;;;;;;;-145.06;100.00;60892.56;5963496;23;20036;-86
2022/08/11 06:53:56;;;;;;;0.88;0.57;;;;;;;-145.06;100.00;60892.56;5943345;23;20009;-86
2022/08/11 07:02:42;;;;;;;0.60;0.60;;;;;;;-145.06;100.00;60892.56;5977383;23;20001;-86
2022/08/11 07:05:43;;;;;;;0.90;0.65;;;;;;;-145.06;100.00;60892.56;5968581;23;20083;-86
2022/08/11 07:30:57;;;;;;;2.80;0.60;;;;;;;-145.06;100.00;60892.56;5975701;23;20005;-86
2022/08/11 07:33:45;;;;;;;1.05;0.60;;;;;;;-145.06;100.00;60892.56;5977715;23;20017;-86
2022/08/11 07:36:27;;;;;;;0.50;0.40;;;;;;;-145.06;100.00;60892.56;5975673;23;20227;-87
2022/08/11 07:39:14;;;;;;;0.50;0.40;;;;;;;-145.06;100.00;60892.56;5965019;23;20029;-86
2022/08/11 07:41:55;;;;;;;0.85;0.50;;;;;;;-145.06;100.00;60892.56;5976519;23;20009;-85
2022/08/11 07:48:10;;;;;;;0.40;0.40;;;;;;;-145.06;100.00;60892.56;5975644;23;20035;-87
2022/08/11 07:53:40;;;;;;;1.05;0.47;;;;;;;-145.06;100.00;60892.56;5977232;23;20000;-87
2022/08/11 07:56:19;;;;;;;0.85;0.50;;;;;;;-145.06;100.00;60892.56;5966742;23;20017;-85
2022/08/11 08:19:51;;;;;;;0.73;0.47;;;;;;;-145.06;100.00;60892.56;5980236;23;20004;-87
2022/08/11 08:22:31;;;;;;;1.20;0.55;;;;;;;-145.06;100.00;60892.56;5949416;23;20428;-87
2022/08/11 08:25:10;;;;;;;;;;;;;;;-145.06;100.00;60892.56;5971282;23;20013;-88
2022/08/11 08:27:50;;;;;;;0.73;0.45;;;;;;;-145.06;100.00;60892.56;5948501;23;19905;-87
2022/08/11 08:33:30;;;;;;;1.17;0.60;;;;;;;-145.06;100.00;60892.56;5981869;23;20009;-87
2022/08/11 08:36:10;;;;;;;0.60;0.43;;;;;;;-145.06;100.00;60892.56;5969963;23;20183;-87
2022/08/11 08:38:52;;;;;;;0.47;0.40;;;;;;;-145.06;100.00;60892.56;5970372;23;20392;-87
2022/08/11 08:41:37;;;;;;;0.47;0.47;;;;;;;-145.06;100.00;60892.56;5971324;23;20036;-87
2022/08/11 08:44:19;;;;;;;0.90;0.60;;;;;;;-145.06;100.00;60892.56;5970207;23;20348;-88
2022/08/11 08:46:59;;;;;;;0.85;0.43;;;;;;;-145.06;100.00;60892.56;5950028;23;20013;-87
2022/08/11 08:49:48;;;;;;;0.85;0.50;;;;;;;-145.06;100.00;60892.56;5982470;23;20432;-88
2022/08/11 08:52:33;;;;;;;0.75;0.50;;;;;;;-145.06;100.00;60892.56;5972787;23;20447;-87
2022/08/11 08:55:17;;;;;;;0.47;0.40;;;;;;;-145.06;100.00;60892.56;5965551;23;20300;-88
2022/08/11 08:57:59;;;;;;;0.50;0.40;;;;;;;-145.06;100.00;60892.56;5992647;23;20174;-88
2022/08/11 09:00:41;;;;;;;0.95;0.40;;;;;;;-145.06;100.00;60892.56;5974383;23;20013;-88
2022/08/11 09:03:21;;;;;;;0.50;0.40;;;;;;;-145.06;100.00;60892.56;5982360;23;20005;-88
2022/08/11 09:06:00;;;;;;;0.73;0.47;;;;;;;-145.06;100.00;60892.56;5971050;23;20100;-87
2022/08/11 09:08:40;;;;;;;2.38;0.40;;;;;;;-145.06;100.00;60892.56;5982375;23;20005;-87
2022/08/11 09:17:42;;;;;;;0.40;0.40;;;;;;;-145.06;100.00;60892.56;5982036;23;20468;-88
2022/08/11 09:20:25;;;;;;;0.50;0.32;;;;;;;-145.06;100.00;60892.56;5971154;23;20020;-87
2022/08/11 09:29:08;;;;;;;1.87;0.30;;;;;;;-145.06;100.00;60892.56;5982313;23;20037;-87
2022/08/11 09:31:47;;;;;;;0.30;0.30;;;;;;;-145.06;100.00;60892.56;5971531;23;20088;-87
2022/08/11 09:34:27;;;;;;;;;;;;;;;-145.06;100.00;60892.56;5971275;23;20001;-88
2022/08/11 09:46:08;;;;;;;0.30;0.20;;;;;;;-145.06;100.00;60892.56;5982536;23;20072;-87
2022/08/11 09:48:48;;;;;;;0.70;0.50;;;;;;;-145.06;100.00;60892.56;5971702;23;20004;-88
2022/08/11 09:51:30;;;;;;;0.40;0.40;;;;;;;-145.06;100.00;60892.56;5982349;23;20057;-87
2022/08/11 09:54:11;;;;;;;0.52;0.40;;;;;;;-145.06;100.00;60892.56;5981884;23;20004;-87
2022/08/11 09:59:52;;;;;;;0.47;0.30;;;;;;;-145.06;100.00;60892.56;5983019;23;20436;-88
2022/08/11 10:02:31;;;;;;;0.47;0.38;;;;;;;-145.06;100.00;60892.56;5971183;23;20009;-87
2022/08/11 10:08:16;;;;;;;0.70;0.65;;;;;;;-145.06;100.00;60892.56;5961233;23;20005;-88
2022/08/11 10:10:56;;;;;;;0.98;0.65;;;;;;;-145.06;100.00;60892.56;5933966;23;20098;-88
2022/08/11 10:16:41;;;;;;;0.50;0.38;;;;;;;-145.06;100.00;60892.56;5981572;23;20017;-87
2022/08/11 10:19:21;;;;;;;1.02;0.40;;;;;;;-145.06;100.00;60892.56;5969132;23;20009;-88
2022/08/11 10:28:01;;;;;;;0.43;0.32;;;;;;;-145.06;100.00;60892.56;5974493;23;20001;-88
2022/08/11 10:36:49;;;;;;;0.57;0.40;;;;;;;-145.06;100.00;60892.56;5974717;23;20013;-88
2022/08/11 10:39:28;;;;;;;0.40;0.38;;;;;;;-145.06;100.00;60892.56;5943267;23;20009;-87
2022/08/11 10:47:33;;;;;;;0.75;0.40;;;;;;;-145.06;100.00;60892.56;5976343;23;20454;-88
2022/08/11 10:48:09;;;;;;;0.43;0.25;;;;;;;-145.06;100.00;60892.56;5967435;23;20005;-89
2022/08/11 10:59:46;;;;;;;0.47;0.40;;;;;;;-145.06;100.00;60892.56;5978041;23;20009;-90
2022/08/11 11:02:26;;;;;;;0.43;0.20;;;;;;;-145.06;100.00;60892.56;5967060;23;20009;-88
2022/08/11 11:05:27;;;;;;;0.30;0.30;;;;;;;-145.06;100.00;60892.56;5976290;23;20079;-88
2022/08/11 11:18:03;;;;;;;1.10;0.40;;;;;;;-145.06;100.00;60892.56;5979163;23;20036;-89
2022/08/11 11:21:04;;;;;;;0.32;0.22;;;;;;;-145.06;100.00;60892.56;5947005;23;20001;-89
2022/08/11 11:24:13;;;;;;;0.30;0.30;;;;;;;-145.06;100.00;60892.56;5978927;23;20088;-89
2022/08/11 11:27:26;;;;;;;0.30;0.30;;;;;;;-145.06;100.00;60892.56;5977857;23;20005;-89
2022/08/11 11:30:13;;;;;;;1.92;0.38;;;;;;;-145.06;100.00;60892.56;5966322;23;20001;-87
2022/08/11 11:33:13;;;;;;;0.30;0.30;;;;;;;-145.06;100.00;60892.56;5967107;23;20004;-88
2022/08/11 11:36:10;;;;;;;0.60;0.40;;;;;;;-145.06;100.00;60892.56;5966859;23;20032;-88
2022/08/11 11:38:50;;;;;;;0.65;0.40;;;;;;;-145.06;100.00;60892.56;5945613;23;20008;-88
2022/08/11 11:41:29;;;;;;;0.30;0.30;;;;;;;-145.06;100.00;60892.56;5974941;23;20033;-89
2022/08/11 11:44:11;;;;;;;0.20;0.20;;;;;;;-145.06;100.00;60892.56;5965239;23;20009;-88
2022/08/11 11:46:52;;;;;;;1.40;0.30;;;;;;;-145.06;100.00;60892.56;5965686;23;20475;-89
2022/08/11 11:49:34;;;;;;;0.40;0.30;;;;;;;-145.06;100.00;60892.56;5967427;23;20009;-89
2022/08/11 11:52:19;;;;;;;0.20;0.20;;;;;;;-145.06;100.00;60892.56;5950467;23;20036;-88
2022/08/11 11:54:59;;;;;;;0.80;0.50;;;;;;;-145.06;100.00;60892.56;5972626;23;20005;-88
2022/08/11 12:03:38;;;;;;;0.55;0.40;;;;;;;-145.06;100.00;60892.56;5982593;23;20494;-90
2022/08/11 12:06:20;;;;;;;0.55;0.20;;;;;;;-145.06;100.00;60892.56;5981472;23;20009;-89
2022/08/11 12:09:00;;;;;;;0.40;0.32;;;;;;;-145.06;100.00;60892.56;5978829;23;20005;-90
2022/08/11 12:14:42;;;;;;;0.30;0.20;;;;;;;-145.06;100.00;60892.56;5978202;23;20321;-90
2022/08/11 12:17:22;;;;;;;0.30;0.28;;;;;;;-145.06;100.00;60892.56;5976829;23;20040;-87
2022/08/11 12:20:03;;;;;;;0.28;0.20;;;;;;;-145.06;100.00;60892.56;5966828;23;20005;-86
2022/08/11 12:28:42;;;;;;;0.20;0.20;;;;;;;-145.06;100.00;60892.56;5976048;23;20229;-85
2022/08/11 12:31:24;;;;;;;0.30;0.30;;;;;;;-145.06;100.00;60892.56;5975468;23;20001;-87
2022/08/11 12:34:07;;;;;;;0.17;0.17;;;;;;;-145.06;100.00;60892.56;5964337;23;20017;-86
2022/08/11 12:36:56;;;;;;;0.25;0.20;;;;;;;-145.06;100.00;60892.56;5964954;23;20001;-85
2022/08/11 12:45:39;;;;;;;0.35;0.20;;;;;;;-145.06;100.00;60892.56;5974733;23;20005;-89
2022/08/11 12:54:50;;;;;;;0.43;0.38;;;;;;;-145.06;100.00;60892.56;5973220;23;20005;-89
2022/08/11 13:06:32;;;;;;;0.32;0.32;;;;;;;-145.06;100.00;60892.56;5969860;23;20729;-88
2022/08/11 13:09:12;;;;;;;0.50;0.20;;;;;;;-145.06;100.00;60892.56;5968273;23;20064;-90
2022/08/11 13:14:50;;;;;;;0.50;0.30;;;;;;;-145.06;100.00;60892.56;5970640;23;20036;-87
2022/08/11 13:17:28;;;;;;;0.60;0.40;;;;;;;-145.06;100.00;60892.56;4882627;27;20486;-86
2022/08/11 13:20:09;;;;;;;0.70;0.30;;;;;;;-145.06;100.00;60892.56;4898794;28;20115;-86
2022/08/11 13:22:51;;;;;;;0.20;0.20;;;;;;;-145.06;100.00;60892.56;4895698;28;20025;-87
2022/08/11 13:25:31;;;;;;;0.40;0.35;;;;;;;-145.06;100.00;60892.56;4885996;28;20040;-87
2022/08/11 13:28:11;;;;;;;0.40;0.28;;;;;;;-145.06;100.00;60892.56;4892712;28;20028;-89
2022/08/11 13:33:52;;;;;;;0.22;0.20;;;;;;;-145.06;100.00;60892.56;4879933;28;20494;-87
2022/08/11 13:36:32;;;;;;;0.32;0.20;;;;;;;-145.06;100.00;60892.56;4882505;28;20029;-89
2022/08/11 13:39:11;;;;;;;;;;;;;;;-145.06;100.00;60892.56;4879437;28;20387;-88
2022/08/11 13:41:55;;;;;;;0.30;0.30;;;;;;;-145.06;100.00;60892.56;4879704;28;19916;-88
2022/08/11 13:44:36;;;;;;;0.28;0.20;;;;;;;-145.06;100.00;60892.56;4881047;28;20033;-87
2022/08/11 13:47:16;;;;;;;0.70;0.52;;;;;;;-145.06;100.00;60892.56;4879901;28;20033;-87
2022/08/11 13:49:56;;;;;;;0.43;0.32;;;;;;;-145.06;100.00;60892.56;4881492;28;20379;-87
2022/08/11 13:52:38;;;;;;;0.55;0.30;;;;;;;-145.06;100.00;60892.56;4884586;28;20033;-92
2022/08/11 13:55:20;;;;;;;0.35;0.10;;;;;;;-145.06;100.00;60892.56;4876538;28;20808;-87
2022/08/11 13:57:59;;;;;;;0.20;0.20;;;;;;;-145.06;100.00;60892.56;4880673;28;20073;-87
2022/08/11 14:00:43;;;;;;;0.60;0.50;;;;;;;-145.06;100.00;60892.56;4880407;28;20036;-87
2022/08/11 14:03:27;;;;;;;0.40;0.30;;;;;;;-145.06;100.00;60892.56;4883863;28;20056;-87
2022/08/11 14:06:08;;;;;;;2.83;0.38;;;;;;;-145.06;100.00;60892.56;4881258;28;20777;-86
2022/08/11 14:08:52;;;;;;;1.23;0.47;;;;;;;-145.06;100.00;60892.56;4882295;28;20068;-87
2022/08/11 14:14:34;;;;;;;0.30;0.28;;;;;;;-145.06;100.00;60892.56;4882523;28;20120;-87
2022/08/11 14:17:16;;;;;;;0.20;0.20;;;;;;;-145.06;100.00;60892.56;4880108;28;20033;-87
2022/08/11 14:19:58;;;;;;;0.22;0.20;;;;;;;-145.06;100.00;60892.56;4880302;28;20040;-87
2022/08/11 14:22:41;;;;;;;0.50;0.30;;;;;;;-145.06;100.00;60892.56;4881055;28;20033;-87
2022/08/11 14:25:20;;;;;;;0.98;0.30;;;;;;;-145.06;100.00;60892.56;4880195;28;20045;-86
2022/08/11 14:27:59;;;;;;;;;;;;;;;-145.06;100.00;60892.56;4873416;28;20037;-86
2022/08/11 14:30:54;;;;;;;0.13;0.13;;;;;;;-145.06;100.00;60892.56;4866074;28;19916;-86
2022/08/11 14:33:35;;;;;;;0.40;0.30;;;;;;;-145.06;100.00;60892.56;4865518;28;20111;-87
2022/08/11 14:36:14;;;;;;;0.30;0.30;;;;;;;-145.06;100.00;60892.56;4866235;28;20092;-87
2022/08/11 14:38:54;;;;;;;0.28;0.28;;;;;;;-145.06;100.00;60892.56;4864640;28;20041;-86
2022/08/11 14:47:35;;;;;;;0.65;0.38;;;;;;;-145.06;100.00;60892.56;4870131;28;20060;-87
2022/08/11 14:50:22;;;;;;;0.30;0.20;;;;;;;-145.06;100.00;60892.56;4868932;28;20025;-86
2022/08/11 14:53:07;;;;;;;0.38;0.30;;;;;;;-145.06;100.00;60892.56;4864837;28;20597;-86
2022/08/11 14:58:45;;;;;;;0.50;0.30;;;;;;;-145.06;100.00;60892.56;4866256;28;20033;-87
2022/08/11 15:04:23;;;;;;;0.30;0.25;;;;;;;-145.06;100.00;60892.56;4869014;28;20036;-87
2022/08/11 15:07:02;;;;;;;0.50;0.30;;;;;;;-145.06;100.00;60892.56;4868664;28;20037;-86
2022/08/11 15:09:43;;;;;;;0.43;0.25;;;;;;;-145.06;100.00;60892.56;4864210;28;20028;-86
2022/08/11 15:12:22;;;;;;;0.85;0.40;;;;;;;-145.06;100.00;60892.56;4862566;28;20068;-87
2022/08/11 15:18:06;;;;;;;0.30;0.30;;;;;;;-145.06;100.00;60892.56;4871232;28;20029;-87
2022/08/11 15:38:48;;;;;;;0.30;0.20;;;;;;;-145.06;100.00;60892.56;4869292;28;20037;-87
2022/08/11 15:48:01;;;;;;;0.85;0.40;;;;;;;-145.06;100.00;60892.56;4865979;28;20036;-86
2022/08/11 15:50:47;;;;;;;0.22;0.20;;;;;;;-145.06;100.00;60892.56;4864075;28;20482;-86
2022/08/11 15:53:32;;;;;;;0.20;0.20;;;;;;;-145.06;100.00;60892.56;4863174;28;20487;-86
2022/08/11 15:56:12;;;;;;;0.25;0.22;;;;;;;-145.06;100.00;60892.56;4869803;28;20033;-86
2022/08/11 16:04:53;;;;;;;0.40;0.32;;;;;;;-145.06;100.00;60892.56;4867586;28;20033;-86
2022/08/11 16:07:34;;;;;;;0.52;0.30;;;;;;;-145.06;100.00;60892.56;4865322;28;20348;-86
2022/08/11 16:10:20;;;;;;;0.82;0.40;;;;;;;-145.06;100.00;60892.56;4866019;28;20029;-87
2022/08/11 16:16:13;;;;;;;0.47;0.30;;;;;;;-145.06;100.00;60892.56;4875631;28;20048;-85
2022/08/11 16:18:55;;;;;;;0.75;0.30;;;;;;;-145.06;100.00;60892.56;4861506;28;20045;-85
2022/08/11 16:21:38;;;;;;;0.40;0.20;;;;;;;-145.06;100.00;60892.56;4860884;28;20033;-85
2022/08/11 16:24:19;;;;;;;0.55;0.30;;;;;;;-145.06;100.00;60892.56;4865581;28;20029;-85
2022/08/11 16:27:00;;;;;;;0.30;0.20;;;;;;;-145.06;100.00;60892.56;4871473;28;20033;-86
2022/08/11 16:29:46;;;;;;;0.55;0.28;;;;;;;-145.06;100.00;60892.56;4866322;28;20037;-87
2022/08/11 16:32:26;;;;;;;0.20;0.20;;;;;;;-145.06;100.00;60892.56;4868521;28;20033;-87
2022/08/11 16:46:58;;;;;;;0.32;0.30;;;;;;;-145.06;100.00;60892.56;4863940;28;20036;-86
2022/08/11 16:47:18;;;;;;;0.30;0.30;;;;;;;-145.06;100.00;60892.56;4865423;28;20032;-86
2022/08/11 16:49:58;;;;;;;0.40;0.30;;;;;;;-145.06;100.00;60892.56;4861818;28;20036;-86
2022/08/11 16:52:37;;;;;;;0.60;0.30;;;;;;;-145.06;100.00;60892.56;4858379;28;20848;-86
2022/08/11 16:55:16;;;;;;;0.38;0.38;;;;;;;-145.06;100.00;60892.56;4865352;28;20037;-86
2022/08/11 17:00:57;;;;;;;;;;;;;;;-145.06;100.00;60892.56;4859798;28;20528;-86
2022/08/11 17:13:07;;;;;;;0.35;0.22;;;;;;;-145.06;100.00;60892.56;4864162;28;20107;-87
2022/08/11 17:16:10;;;;;;;0.50;0.20;;;;;;;-145.06;100.00;60892.56;4861670;28;20546;-88
2022/08/11 17:19:01;;;;;;;0.52;0.30;;;;;;;-145.06;100.00;60892.56;4863362;28;20037;-87
2022/08/11 17:24:50;;;;;;;0.25;0.20;;;;;;;-145.06;100.00;60892.56;4868252;28;20028;-88
2022/08/11 17:27:30;;;;;;;0.20;0.20;;;;;;;-145.06;100.00;60892.56;4867383;28;20364;-87
2022/08/11 17:30:10;;;;;;;2.08;0.30;;;;;;;-145.06;100.00;60892.56;4871733;28;20025;-87
2022/08/11 17:35:49;;;;;;;0.30;0.20;;;;;;;-145.06;100.00;60892.56;4871386;28;20029;-87
2022/08/11 17:38:30;;;;;;;0.30;0.20;;;;;;;-145.06;100.00;60892.56;4871172;28;20044;-87
2022/08/11 17:50:07;;;;;;;0.35;0.32;;;;;;;-145.06;100.00;60892.56;4872262;28;20117;-88
2022/08/11 18:01:48;;;;;;;0.30;0.28;;;;;;;-145.06;100.00;60892.56;4871339;28;19987;-88
2022/08/11 18:04:28;;;;;;;0.20;0.20;;;;;;;-145.06;100.00;60892.56;4872704;28;20029;-89
